Time;durP1;ratioP1;P1;durP2;ratioP2;P2;SDS_P1;SDS_P2;PMS_P1;PMS_P2;Temp;Humidity;BMP_temperature;BMP_pressure;BME280_temperature;BME280_humidity;BME280_pressure;Samples;Min_cycle;Max_cycle;Signal;HPM_P1;HPM_P2
2022/11/02 00:01:55;;;;;;;195.07;119.18;;;;;;;22.79;72.89;98983.78;4870891;29;20045;-63
2022/11/02 00:04:37;;;;;;;203.73;122.40;;;;;;;22.80;73.05;98987.38;4878145;29;20053;-63
2022/11/02 00:07:26;;;;;;;209.23;125.18;;;;;;;22.79;73.03;98992.00;4872707;29;20060;-63
2022/11/02 00:10:10;;;;;;;208.73;123.93;;;;;;;22.73;73.33;98993.16;4873293;29;20140;-65
2022/11/02 00:12:58;;;;;;;212.10;123.45;;;;;;;22.67;73.27;98991.56;4873439;29;20044;-65
2022/11/02 00:15:41;;;;;;;215.30;129.38;;;;;;;22.66;73.67;98989.94;4886264;29;20056;-65
2022/11/02 00:18:30;;;;;;;202.57;126.35;;;;;;;22.58;73.72;98991.38;4891733;29;20135;-61
2022/11/02 00:21:15;;;;;;;212.73;126.88;;;;;;;22.60;73.67;98988.34;4890951;29;20091;-63
2022/11/02 00:24:04;;;;;;;205.77;126.10;;;;;;;22.58;73.21;98982.34;4889354;29;20152;-61
2022/11/02 00:26:46;;;;;;;207.60;127.72;;;;;;;22.59;73.70;98979.34;4889940;29;20504;-61
2022/11/02 00:29:36;;;;;;;217.45;128.85;;;;;;;22.56;73.61;98979.91;4890869;29;20372;-61
2022/11/02 00:32:18;;;;;;;218.02;129.10;;;;;;;22.50;73.68;98975.56;4882035;29;20074;-61
2022/11/02 00:35:09;;;;;;;227.43;127.85;;;;;;;22.45;74.01;98984.66;4873055;29;20075;-62
2022/11/02 00:37:50;;;;;;;205.68;123.20;;;;;;;22.40;74.24;98984.69;4879484;29;20091;-62
2022/11/02 00:40:39;;;;;;;216.57;126.28;;;;;;;22.41;73.97;98977.28;4879063;29;20501;-65
2022/11/02 00:43:21;;;;;;;214.02;122.20;;;;;;;22.43;73.95;98984.13;4873291;29;20378;-65
2022/11/02 00:46:10;;;;;;;204.98;121.03;;;;;;;22.47;73.81;98985.19;4872756;29;20052;-63
2022/11/02 00:48:59;;;;;;;205.52;120.97;;;;;;;22.41;73.81;98980.84;4883603;29;20072;-61
2022/11/02 00:51:48;;;;;;;212.10;121.43;;;;;;;22.46;73.72;98972.59;4865208;29;20132;-63
2022/11/02 00:54:32;;;;;;;196.15;115.22;;;;;;;22.50;73.08;98974.75;4875828;29;20159;-64
2022/11/02 00:57:21;;;;;;;202.95;114.47;;;;;;;22.51;73.08;98973.66;4874256;29;20117;-63
2022/11/02 01:00:07;;;;;;;192.65;110.53;;;;;;;22.57;72.90;98978.00;4899364;29;20140;-64
2022/11/02 01:02:55;;;;;;;194.07;110.53;;;;;;;22.48;73.40;98977.78;4858210;29;20094;-63
2022/11/02 01:05:50;;;;;;;191.98;108.90;;;;;;;22.43;73.71;98986.84;4857710;29;20077;-64
2022/11/02 01:08:26;;;;;;;192.65;109.28;;;;;;;22.42;73.67;98993.41;4861962;29;20110;-63
2022/11/02 01:11:18;;;;;;;187.10;108.78;;;;;;;22.41;74.45;98990.97;4877094;29;20053;-65
2022/11/02 01:14:08;;;;;;;179.07;108.70;;;;;;;22.29;74.42;98992.13;4874602;29;20064;-65
2022/11/02 01:16:56;;;;;;;182.00;111.00;;;;;;;22.34;74.79;99001.44;4882749;29;20048;-64
2022/11/02 01:19:38;;;;;;;187.60;111.65;;;;;;;22.35;74.71;99000.31;4879861;29;20094;-63
2022/11/02 01:22:27;;;;;;;179.68;107.45;;;;;;;22.33;74.79;99008.78;4882359;29;20431;-62
2022/11/02 01:25:11;;;;;;;176.10;108.88;;;;;;;22.34;74.66;99017.81;4882932;29;20120;-61
2022/11/02 01:27:59;;;;;;;185.75;110.65;;;;;;;22.44;73.99;99025.94;4892660;29;20056;-63
2022/11/02 01:30:43;;;;;;;179.50;104.00;;;;;;;22.46;73.50;99021.00;4894030;29;20060;-64
2022/11/02 01:33:40;;;;;;;168.65;104.45;;;;;;;22.57;73.42;99032.69;4887721;29;20045;-64
2022/11/02 01:36:20;;;;;;;171.15;100.38;;;;;;;22.62;73.13;99027.16;4886268;29;20091;-62
2022/11/02 01:39:14;;;;;;;171.40;99.43;;;;;;;22.71;73.37;99028.19;4874712;29;20104;-67
2022/11/02 01:42:15;;;;;;;165.63;98.70;;;;;;;22.65;72.83;99032.09;4874188;29;20080;-64
2022/11/02 01:45:03;;;;;;;162.15;94.22;;;;;;;22.80;71.92;99042.91;4879687;29;20048;-62
2022/11/02 01:47:52;;;;;;;171.10;98.55;;;;;;;22.81;71.66;99036.31;4872127;29;20048;-63
2022/11/02 01:50:42;;;;;;;163.52;98.72;;;;;;;22.90;71.78;99046.66;4874948;29;20100;-63
2022/11/02 01:53:24;;;;;;;168.65;98.22;;;;;;;22.82;72.15;99051.63;4875032;29;20601;-64
2022/11/02 01:56:15;;;;;;;160.63;96.35;;;;;;;22.94;71.79;99050.44;4890285;29;20056;-62
2022/11/02 01:59:01;;;;;;;166.73;99.78;;;;;;;23.07;71.60;99055.28;4874539;29;20056;-66
2022/11/02 02:01:51;;;;;;;176.70;100.60;;;;;;;23.09;71.31;99052.25;4887787;29;20049;-63
2022/11/02 02:04:35;;;;;;;168.52;102.63;;;;;;;23.21;71.54;99056.22;4865750;29;20490;-62
2022/11/02 02:07:25;;;;;;;184.20;101.60;;;;;;;23.28;71.55;99060.56;4867348;29;20055;-64
2022/11/02 02:10:09;;;;;;;177.70;105.00;;;;;;;23.29;71.09;99057.53;4892793;29;20052;-62
2022/11/02 02:12:57;;;;;;;172.18;104.03;;;;;;;23.31;70.95;99065.44;4893397;29;20060;-61
2022/11/02 02:16:09;;;;;;;206.93;108.32;;;;;;;23.37;73.28;99065.13;4890529;29;20065;-64
2022/11/02 02:19:03;;;;;;;184.68;107.95;;;;;;;23.31;72.02;99060.81;4871971;29;20504;-64
2022/11/02 02:22:28;;;;;;;179.07;105.50;;;;;;;23.37;73.45;99065.13;4873374;29;20567;-65
2022/11/02 02:26:04;;;;;;;180.40;102.43;;;;;;;23.38;73.08;99066.75;4863361;29;20120;-62
2022/11/02 02:29:15;;;;;;;182.70;103.55;;;;;;;23.45;70.81;99071.88;4836838;29;20427;-65
2022/11/02 02:32:41;;;;;;;191.75;107.88;;;;;;;23.17;71.60;99059.84;4821720;29;20050;-66
2022/11/02 02:35:50;;;;;;;181.63;106.85;;;;;;;23.30;71.15;99059.16;4855413;29;20254;-63
2022/11/02 02:38:50;;;;;;;189.93;105.10;;;;;;;23.20;70.75;99065.56;4883307;29;20060;-62
2022/11/02 02:41:54;;;;;;;183.80;106.00;;;;;;;23.19;70.83;99063.91;4889183;29;20446;-65
2022/11/02 02:44:35;;;;;;;175.98;103.13;;;;;;;23.10;71.24;99060.19;4854770;29;20189;-64
2022/11/02 02:47:33;;;;;;;193.77;106.68;;;;;;;23.18;70.19;99056.00;4855459;29;20054;-65
2022/11/02 02:50:26;;;;;;;185.18;106.13;;;;;;;23.37;70.54;99072.50;4891769;29;20331;-65
2022/11/02 02:53:28;;;;;;;189.55;103.53;;;;;;;23.10;71.08;99094.94;4879612;29;20052;-60
2022/11/02 02:56:26;;;;;;;178.77;102.78;;;;;;;23.26;70.89;99094.53;4878119;29;20072;-65
2022/11/02 02:59:13;;;;;;;176.73;105.03;;;;;;;23.19;70.47;99091.28;4871249;29;20140;-63
2022/11/02 03:02:14;;;;;;;197.68;104.90;;;;;;;22.97;71.20;99082.72;4876477;29;20075;-63
2022/11/02 03:04:50;;;;;;;187.05;101.88;;;;;;;23.31;70.84;99095.56;4871357;29;20056;-63
2022/11/02 03:07:44;;;;;;;176.73;98.75;;;;;;;23.45;70.02;99105.56;4874119;29;20060;-63
2022/11/02 03:10:29;;;;;;;184.27;98.32;;;;;;;23.49;70.83;99115.97;4872311;29;20077;-63
2022/11/02 03:13:54;;;;;;;178.82;99.82;;;;;;;23.67;70.14;99134.38;4876609;29;20481;-64
2022/11/02 03:16:54;;;;;;;173.90;92.35;;;;;;;23.32;68.98;99127.34;4826798;29;20358;-63
2022/11/02 03:20:03;;;;;;;174.88;92.20;;;;;;;23.69;69.17;99129.41;4871110;29;20117;-61
2022/11/02 03:23:01;;;;;;;158.50;88.32;;;;;;;23.59;68.53;99127.59;4888017;29;20089;-62
2022/11/02 03:25:52;;;;;;;167.93;90.40;;;;;;;23.95;67.96;99132.75;4868972;29;20049;-65
2022/11/02 03:29:07;;;;;;;155.87;89.23;;;;;;;23.88;67.76;99145.97;4862088;29;20076;-64
2022/11/02 03:31:59;;;;;;;151.23;87.35;;;;;;;23.94;67.95;99141.25;4875261;29;20052;-63
2022/11/02 03:35:02;;;;;;;162.75;87.60;;;;;;;23.99;68.21;99157.66;4872423;29;20053;-61
2022/11/02 03:38:06;;;;;;;153.68;84.57;;;;;;;24.33;67.77;99146.53;4875153;28;20057;-62
2022/11/02 03:41:00;;;;;;;147.25;83.40;;;;;;;24.33;66.93;99145.72;4853384;29;20045;-61
2022/11/02 03:43:52;;;;;;;135.90;79.80;;;;;;;24.29;66.58;99148.22;4874274;29;20477;-61
2022/11/02 03:46:39;;;;;;;125.15;71.03;;;;;;;24.56;65.47;99144.06;4891959;29;20098;-63
2022/11/02 03:49:30;;;;;;;118.47;66.97;;;;;;;24.79;64.83;99132.19;4891133;29;20123;-62
2022/11/02 03:52:20;;;;;;;104.68;62.92;;;;;;;24.64;64.05;99139.84;4879919;29;20116;-65
2022/11/02 03:55:21;;;;;;;104.50;59.75;;;;;;;24.68;64.10;99136.19;4869510;29;20076;-65
2022/11/02 03:58:17;;;;;;;100.97;59.95;;;;;;;24.78;62.41;99136.06;4891631;29;20135;-64
2022/11/02 04:00:59;;;;;;;95.75;58.92;;;;;;;25.18;62.96;99139.28;4892803;29;20049;-63
2022/11/02 04:03:55;;;;;;;98.25;57.60;;;;;;;25.48;63.66;99137.13;4856947;29;20052;-66
2022/11/02 04:06:33;;;;;;;105.70;61.58;;;;;;;25.57;61.10;99138.06;4871550;29;20052;-64
2022/11/02 04:09:23;;;;;;;98.43;56.83;;;;;;;26.02;60.55;99123.75;4884723;29;20069;-67
2022/11/02 04:15:14;;;;;;;98.55;54.83;;;;;;;26.49;58.68;99118.91;4888187;29;20040;-63
2022/11/02 04:21:03;;;;;;;120.70;54.83;;;;;;;26.89;57.61;99108.09;4872496;29;20140;-63
2022/11/02 04:26:54;;;;;;;90.90;52.58;;;;;;;27.11;54.35;99112.78;4873444;29;20071;-65
2022/11/02 04:29:44;;;;;;;89.70;52.40;;;;;;;27.35;56.40;99111.66;4890215;29;20053;-64
2022/11/02 04:35:49;;;;;;;86.93;49.95;;;;;;;27.69;53.92;99112.97;4865063;29;20051;-64
2022/11/02 04:38:42;;;;;;;87.43;49.03;;;;;;;27.86;53.83;99115.78;4877991;28;20045;-64
2022/11/02 04:41:40;;;;;;;91.90;48.00;;;;;;;27.64;53.46;99110.34;4874170;29;20061;-64
2022/11/02 04:44:45;;;;;;;78.35;46.15;;;;;;;27.65;51.16;99123.81;4878974;29;20288;-61
2022/11/02 04:47:41;;;;;;;81.75;44.92;;;;;;;27.94;51.72;99118.94;4859289;29;20053;-65
2022/11/02 04:50:17;;;;;;;89.63;45.85;;;;;;;28.29;51.62;99126.16;4891091;29;20521;-66
2022/11/02 04:53:06;;;;;;;80.47;43.63;;;;;;;28.05;50.00;99120.25;4858518;29;20454;-62
2022/11/02 04:55:52;;;;;;;69.38;42.72;;;;;;;28.15;50.53;99124.69;4872186;29;20056;-62
2022/11/02 04:58:48;;;;;;;72.53;43.10;;;;;;;28.54;50.22;99123.78;4876821;29;20247;-65
2022/11/02 05:01:27;;;;;;;71.43;40.47;;;;;;;28.74;48.95;99114.06;4872940;29;20057;-64
2022/11/02 05:04:16;;;;;;;64.63;36.65;;;;;;;28.52;46.77;99111.44;4875910;29;20056;-65
2022/11/02 05:06:59;;;;;;;73.43;37.10;;;;;;;28.59;45.82;99115.34;4886069;29;20116;-65
2022/11/02 05:09:47;;;;;;;54.10;34.65;;;;;;;28.68;44.76;99110.66;4873103;29;20055;-63
2022/11/02 05:12:38;;;;;;;62.95;35.58;;;;;;;28.76;44.19;99110.94;4858268;29;20057;-62
2022/11/02 05:15:20;;;;;;;62.08;34.30;;;;;;;28.54;42.67;99109.16;4863437;29;20048;-64
2022/11/02 05:18:12;;;;;;;61.47;32.45;;;;;;;29.12;45.20;99098.72;4866254;29;20045;-61
2022/11/02 05:21:01;;;;;;;60.08;33.20;;;;;;;29.03;43.37;99107.84;4890013;29;20120;-63
2022/11/02 05:23:51;;;;;;;61.58;30.92;;;;;;;29.51;43.99;99102.41;4862520;29;20048;-66
2022/11/02 05:26:41;;;;;;;57.17;28.60;;;;;;;29.29;42.27;99087.66;4859202;29;20045;-65
2022/11/02 05:29:35;;;;;;;49.90;28.00;;;;;;;29.86;42.85;99087.28;4852678;29;20071;-62
2022/11/02 05:32:16;;;;;;;50.55;30.25;;;;;;;30.35;41.98;99086.06;4874069;29;20041;-65
2022/11/02 05:35:07;;;;;;;64.93;31.98;;;;;;;29.87;41.94;99074.28;4883315;29;20052;-66
2022/11/02 05:37:59;;;;;;;51.60;28.42;;;;;;;30.14;40.01;99086.03;4873455;29;20157;-65
2022/11/02 05:41:04;;;;;;;46.10;22.80;;;;;;;29.88;40.03;99077.84;4876912;29;20067;-65
2022/11/02 05:43:42;;;;;;;39.97;22.20;;;;;;;29.90;39.73;99076.38;4862970;29;20053;-64
2022/11/02 05:46:39;;;;;;;40.95;20.52;;;;;;;29.87;37.59;99071.53;4878474;29;20055;-66
2022/11/02 05:49:15;;;;;;;29.15;16.60;;;;;;;29.58;36.01;99063.97;4873278;29;20061;-67
2022/11/02 05:52:04;;;;;;;45.13;17.15;;;;;;;29.67;36.77;99057.28;4874650;29;20061;-64
2022/11/02 05:54:46;;;;;;;31.50;16.13;;;;;;;30.13;36.10;99051.16;4885558;29;20052;-65
2022/11/02 05:57:35;;;;;;;25.52;13.65;;;;;;;29.95;34.78;99042.19;4876625;29;20112;-65
2022/11/02 06:00:17;;;;;;;29.05;15.30;;;;;;;29.78;35.89;99040.31;4874934;29;20121;-66
2022/11/02 06:03:06;;;;;;;27.83;15.18;;;;;;;30.18;36.13;99032.41;4856901;29;20084;-66
2022/11/02 06:05:48;;;;;;;24.73;13.77;;;;;;;30.17;34.96;99036.34;4860460;29;20116;-66
2022/11/02 06:08:44;;;;;;;29.45;14.27;;;;;;;30.06;36.02;99029.56;4871869;29;20057;-66
2022/11/02 06:11:20;;;;;;;36.38;14.75;;;;;;;30.25;36.72;99016.06;4873448;29;20049;-66
2022/11/02 06:14:15;;;;;;;30.23;13.40;;;;;;;30.01;34.54;99019.50;4877453;29;20111;-65
2022/11/02 06:16:51;;;;;;;43.58;13.32;;;;;;;30.13;35.85;99015.97;4876247;29;20053;-66
2022/11/02 06:19:40;;;;;;;36.38;13.15;;;;;;;30.25;36.80;99012.50;4875407;29;20072;-67
2022/11/02 06:22:22;;;;;;;27.70;11.60;;;;;;;29.99;34.52;99004.38;4874499;29;20529;-66
2022/11/02 06:25:12;;;;;;;23.25;9.85;;;;;;;29.74;32.94;99006.19;4872300;29;20412;-67
2022/11/02 06:28:02;;;;;;;26.02;9.35;;;;;;;29.90;37.00;99003.63;4894159;29;20100;-66
2022/11/02 06:30:51;;;;;;;22.33;10.95;;;;;;;30.00;35.14;98997.69;4869828;29;20781;-64
2022/11/02 06:33:41;;;;;;;25.23;11.68;;;;;;;30.11;37.35;98982.28;4855129;29;20057;-64
2022/11/02 06:36:22;;;;;;;24.58;11.18;;;;;;;30.25;37.99;98982.84;4855919;29;20061;-63
2022/11/02 06:39:17;;;;;;;24.13;9.65;;;;;;;29.76;35.37;98970.69;4875039;29;20108;-63
2022/11/02 06:41:53;;;;;;;14.35;8.25;;;;;;;29.72;33.97;98976.03;4892907;29;20076;-63
2022/11/02 06:44:42;;;;;;;20.13;8.05;;;;;;;29.72;33.99;98962.22;4890998;29;20757;-64
2022/11/02 06:47:37;;;;;;;23.30;9.70;;;;;;;29.97;35.92;98962.41;4877661;29;20132;-63
2022/11/02 06:50:25;;;;;;;24.58;9.38;;;;;;;29.99;36.75;98960.09;4892970;29;20056;-63
2022/11/02 06:53:07;;;;;;;20.50;8.65;;;;;;;29.91;34.61;98945.19;4893555;29;20060;-64
2022/11/02 06:55:58;;;;;;;15.68;7.60;;;;;;;30.13;34.19;98946.78;4874385;29;20091;-63
2022/11/02 06:58:40;;;;;;;17.80;7.90;;;;;;;30.24;33.90;98944.44;4875010;29;20045;-64
2022/11/02 07:01:29;;;;;;;17.30;7.75;;;;;;;29.88;33.47;98928.44;4874932;29;20088;-63
2022/11/02 07:04:18;;;;;;;15.30;7.13;;;;;;;29.80;34.84;98930.94;4892359;29;20492;-64
2022/11/02 07:07:13;;;;;;;18.40;6.97;;;;;;;29.66;35.20;98919.31;4893721;29;20053;-63
2022/11/02 07:09:49;;;;;;;17.85;7.30;;;;;;;29.64;35.98;98913.31;4892951;29;20112;-64
2022/11/02 07:12:38;;;;;;;19.17;6.72;;;;;;;29.63;35.28;98906.13;4892933;29;20056;-64
2022/11/02 07:15:21;;;;;;;17.40;6.78;;;;;;;30.30;36.52;98897.97;4891998;29;20045;-63
2022/11/02 07:18:17;;;;;;;20.50;6.95;;;;;;;30.14;35.31;98898.59;4893532;29;20135;-64
2022/11/02 07:20:53;;;;;;;17.73;8.15;;;;;;;30.33;33.96;98883.47;4893151;29;20052;-64
2022/11/02 07:23:42;;;;;;;19.23;8.93;;;;;;;30.25;34.63;98877.66;4890933;29;20064;-64
2022/11/02 07:26:31;;;;;;;22.15;8.30;;;;;;;30.24;34.57;98869.69;4877243;29;20049;-64
2022/11/02 07:29:20;;;;;;;24.30;9.68;;;;;;;30.44;35.17;98868.03;4874264;29;20504;-63
2022/11/02 07:32:02;;;;;;;20.73;9.75;;;;;;;30.19;33.85;98859.63;4873152;29;20053;-64
2022/11/02 07:34:51;;;;;;;23.50;10.00;;;;;;;30.53;34.67;98854.09;4881857;29;20045;-65
2022/11/02 07:37:40;;;;;;;22.10;10.10;;;;;;;30.81;37.28;98854.25;4874217;29;20082;-65
2022/11/02 07:40:37;;;;;;;28.60;12.05;;;;;;;30.55;35.61;98844.28;4872597;29;20568;-64
2022/11/02 07:43:13;;;;;;;29.92;12.02;;;;;;;30.82;34.73;98844.75;4870981;29;20486;-65
2022/11/02 07:46:31;;;;;;;32.88;13.40;;;;;;;30.94;36.56;98842.03;4848794;29;20355;-63
2022/11/02 07:49:13;;;;;;;25.80;14.00;;;;;;;30.73;37.18;98835.78;4867500;29;20067;-63
2022/11/02 07:52:02;;;;;;;35.55;17.02;;;;;;;30.86;35.98;98828.25;4855455;29;20049;-64
2022/11/02 07:54:44;;;;;;;37.30;17.60;;;;;;;31.36;35.57;98821.53;4855758;29;20077;-63
2022/11/02 07:57:39;;;;;;;39.67;18.30;;;;;;;30.85;35.49;98821.91;4868296;29;20057;-64
2022/11/02 08:00:15;;;;;;;46.90;20.00;;;;;;;30.87;37.99;98819.59;4873864;29;20060;-63
2022/11/02 08:03:13;;;;;;;48.05;21.48;;;;;;;30.67;36.41;98814.97;4862954;29;20049;-62
2022/11/02 08:05:49;;;;;;;50.13;21.77;;;;;;;30.61;36.25;98801.38;4877735;29;20124;-63
2022/11/02 08:08:37;;;;;;;51.63;23.60;;;;;;;30.81;37.22;98807.94;4866474;29;20445;-62
2022/11/02 08:11:19;;;;;;;45.00;23.02;;;;;;;31.14;38.11;98795.13;4876915;29;20476;-62
2022/11/02 08:14:09;;;;;;;45.50;24.65;;;;;;;31.07;38.52;98781.88;4873493;29;20045;-64
2022/11/02 08:16:58;;;;;;;39.35;19.80;;;;;;;30.86;36.02;98787.50;4877792;29;20053;-63
2022/11/02 08:19:40;;;;;;;38.25;20.00;;;;;;;31.13;36.75;98777.69;4877313;29;20695;-63
2022/11/02 08:22:29;;;;;;;36.78;19.35;;;;;;;31.42;38.92;98784.09;4877237;29;20053;-64
2022/11/02 08:25:24;;;;;;;31.00;20.10;;;;;;;31.16;37.78;98776.97;4863004;29;20065;-63
2022/11/02 08:28:00;;;;;;;44.30;19.50;;;;;;;31.15;37.18;98775.38;4874392;29;20450;-63
2022/11/02 08:30:55;;;;;;;;;;;;;;;31.47;38.14;98766.41;4889969;29;20085;-64
2022/11/02 08:33:31;;;;;;;34.00;18.73;;;;;;;30.52;38.63;98772.97;4860288;29;20487;-63
2022/11/02 08:36:20;;;;;;;44.83;20.63;;;;;;;30.98;37.48;98761.78;4876852;29;20068;-64
2022/11/02 08:39:15;;;;;;;36.42;19.80;;;;;;;31.22;38.82;98753.41;4884926;29;20128;-64
2022/11/02 08:42:04;;;;;;;39.47;19.40;;;;;;;30.95;37.74;98751.38;4876878;29;20060;-63
2022/11/02 08:44:53;;;;;;;30.95;17.38;;;;;;;31.03;37.28;98750.44;4891667;29;20048;-63
2022/11/02 08:47:40;;;;;;;33.47;19.00;;;;;;;31.18;39.80;98743.34;4895705;29;20144;-62
2022/11/02 08:50:30;;;;;;;37.40;18.23;;;;;;;31.10;38.10;98738.78;4891148;29;20092;-63
2022/11/02 08:53:12;;;;;;;32.05;19.58;;;;;;;31.22;37.00;98741.50;4881088;29;20053;-63
2022/11/02 08:56:04;;;;;;;33.17;17.50;;;;;;;31.25;38.48;98734.47;4859120;29;20068;-63
2022/11/02 08:58:46;;;;;;;33.80;17.70;;;;;;;31.07;37.98;98733.91;4857985;29;20449;-63
2022/11/02 09:01:37;;;;;;;36.15;17.52;;;;;;;31.29;37.69;98729.81;4871177;29;20048;-63
2022/11/02 09:04:19;;;;;;;37.63;18.17;;;;;;;31.29;37.21;98727.84;4887235;29;20612;-64
2022/11/02 09:07:08;;;;;;;35.22;17.67;;;;;;;31.39;38.16;98715.44;4876193;29;20049;-65
2022/11/02 09:09:50;;;;;;;35.55;20.20;;;;;;;31.28;37.34;98729.03;4876715;29;20121;-64
2022/11/02 09:12:39;;;;;;;41.30;21.50;;;;;;;31.25;37.52;98717.81;4885506;29;20056;-65
2022/11/02 09:15:21;;;;;;;45.85;23.52;;;;;;;31.32;38.01;98715.22;4889942;29;20060;-64
2022/11/02 09:18:12;;;;;;;48.42;24.30;;;;;;;31.14;37.75;98720.28;4894186;29;20659;-64
2022/11/02 09:20:55;;;;;;;40.63;24.17;;;;;;;30.99;37.41;98711.56;4895216;29;20442;-64
2022/11/02 09:23:47;;;;;;;50.53;23.75;;;;;;;31.15;37.81;98714.38;4891906;29;20503;-64
2022/11/02 09:26:28;;;;;;;46.05;23.08;;;;;;;31.12;37.54;98711.50;4895202;29;20434;-64
2022/11/02 09:29:17;;;;;;;52.55;22.95;;;;;;;30.97;37.90;98699.97;4894590;29;20060;-64
2022/11/02 09:31:59;;;;;;;37.40;22.15;;;;;;;31.05;38.46;98701.03;4895059;29;20071;-64
2022/11/02 09:34:49;;;;;;;38.97;20.77;;;;;;;31.02;36.90;98699.75;4895244;29;20064;-64
2022/11/02 09:37:32;;;;;;;33.65;19.65;;;;;;;31.10;36.43;98702.72;4894667;29;20087;-64
2022/11/02 09:40:35;;;;;;;36.17;19.08;;;;;;;31.35;36.13;98698.69;4892834;29;20627;-64
2022/11/02 09:43:36;;;;;;;41.10;19.58;;;;;;;31.57;36.44;98696.56;4894539;29;20067;-64
2022/11/02 09:46:33;;;;;;;38.20;19.27;;;;;;;31.04;36.19;98702.16;4882647;29;20057;-64
2022/11/02 09:49:25;;;;;;;38.20;18.73;;;;;;;31.23;36.06;98688.47;4877305;29;20094;-64
2022/11/02 09:52:29;;;;;;;39.05;18.77;;;;;;;31.36;36.61;98686.47;4892676;29;20480;-63
2022/11/02 09:55:24;;;;;;;40.83;18.93;;;;;;;31.09;36.62;98676.97;4875931;29;20056;-64
2022/11/02 09:58:14;;;;;;;38.67;19.60;;;;;;;30.91;36.63;98682.00;4875306;29;20053;-63
2022/11/02 10:01:08;;;;;;;35.72;20.10;;;;;;;31.28;36.96;98676.34;4888259;29;20084;-64
2022/11/02 10:04:09;;;;;;;41.13;19.77;;;;;;;31.17;36.20;98672.44;4887907;29;20152;-64
2022/11/02 10:07:02;;;;;;;37.15;19.63;;;;;;;31.00;37.05;98679.09;4876046;29;20529;-64
2022/11/02 10:10:01;;;;;;;39.22;19.25;;;;;;;30.88;35.54;98676.31;4859732;29;20054;-65
2022/11/02 10:13:08;;;;;;;32.75;17.95;;;;;;;30.92;36.12;98671.72;4893076;29;20056;-64
2022/11/02 10:16:17;;;;;;;39.28;18.02;;;;;;;31.23;35.93;98660.75;4894058;29;20056;-64
2022/11/02 10:19:00;;;;;;;38.03;20.20;;;;;;;30.99;37.15;98660.84;4865297;29;20048;-62
2022/11/02 10:21:56;;;;;;;46.65;20.63;;;;;;;30.98;36.18;98660.03;4877305;29;20080;-64
2022/11/02 10:24:47;;;;;;;41.85;20.52;;;;;;;30.70;36.53;98659.16;4884503;29;20060;-63
2022/11/02 10:27:38;;;;;;;35.00;19.90;;;;;;;30.89;37.08;98655.75;4894127;29;20056;-63
2022/11/02 10:30:27;;;;;;;45.92;20.33;;;;;;;30.56;36.95;98660.34;4879942;29;20052;-63
2022/11/02 10:33:26;;;;;;;45.13;21.55;;;;;;;30.64;36.42;98656.63;4893787;29;20068;-63
2022/11/02 10:36:18;;;;;;;35.42;21.00;;;;;;;30.70;36.55;98654.41;4875240;29;20064;-62
2022/11/02 10:39:22;;;;;;;44.65;21.83;;;;;;;30.39;37.19;98650.31;4881746;29;20503;-62
2022/11/02 10:42:24;;;;;;;45.83;21.27;;;;;;;30.64;36.56;98645.53;4878944;29;20052;-63
2022/11/02 10:45:41;;;;;;;38.40;19.50;;;;;;;30.37;37.14;98649.06;4878811;29;20685;-62
2022/11/02 10:48:46;;;;;;;40.80;20.63;;;;;;;30.32;36.78;98646.50;4874278;29;20703;-63
2022/11/02 10:51:35;;;;;;;36.35;21.02;;;;;;;30.31;36.72;98637.38;4873386;29;20053;-62
2022/11/02 10:54:24;;;;;;;40.28;20.13;;;;;;;30.34;36.70;98638.66;4875961;29;20073;-63
2022/11/02 10:57:17;;;;;;;31.58;20.05;;;;;;;30.29;38.23;98639.69;4872881;29;20064;-65
2022/11/02 11:00:31;;;;;;;37.53;19.75;;;;;;;30.20;39.17;98641.75;4872896;29;20144;-63
2022/11/02 11:03:16;;;;;;;35.17;20.33;;;;;;;30.03;39.99;98643.59;4873064;29;20063;-63
2022/11/02 11:06:10;;;;;;;39.22;21.02;;;;;;;29.93;39.68;98643.25;4876793;29;20135;-63
2022/11/02 11:08:59;;;;;;;32.25;19.52;;;;;;;29.96;40.00;98637.03;4877523;29;20125;-64
2022/11/02 11:11:57;;;;;;;51.25;20.85;;;;;;;29.89;39.48;98645.09;4871843;29;20064;-63
2022/11/02 11:14:46;;;;;;;34.67;21.60;;;;;;;29.77;41.35;98634.81;4860645;29;20059;-65
2022/11/02 11:17:56;;;;;;;44.88;21.75;;;;;;;29.62;41.99;98628.78;4873889;29;20136;-65
2022/11/02 11:21:00;;;;;;;47.10;21.40;;;;;;;29.59;42.27;98629.44;4873523;29;20060;-62
2022/11/02 11:24:43;;;;;;;37.38;19.50;;;;;;;29.51;42.65;98633.13;4875176;29;20059;-63
2022/11/02 11:27:25;;;;;;;37.28;20.95;;;;;;;29.48;41.78;98629.09;4872653;29;20067;-64
2022/11/02 11:30:32;;;;;;;35.83;20.00;;;;;;;29.38;43.63;98635.03;4874754;29;20052;-63
2022/11/02 11:33:50;;;;;;;42.95;21.17;;;;;;;29.31;42.50;98633.97;4876869;29;20053;-64
2022/11/02 11:36:35;;;;;;;45.15;20.10;;;;;;;29.24;44.23;98629.03;4873000;29;20124;-64
2022/11/02 11:39:36;;;;;;;44.13;18.50;;;;;;;29.08;44.27;98632.41;4871957;29;20080;-64
2022/11/02 11:42:30;;;;;;;44.42;19.77;;;;;;;29.00;44.56;98627.72;4875859;29;20053;-64
2022/11/02 11:45:29;;;;;;;43.80;19.30;;;;;;;28.96;45.21;98626.00;4873520;29;20739;-63
2022/11/02 11:48:41;;;;;;;39.70;19.85;;;;;;;28.85;45.84;98628.34;4882772;29;20087;-64
2022/11/02 11:51:44;;;;;;;45.42;20.58;;;;;;;28.64;46.52;98623.66;4879819;29;20116;-64
2022/11/02 11:54:30;;;;;;;33.05;18.65;;;;;;;28.47;45.93;98619.03;4871753;29;20067;-63
2022/11/02 11:57:39;;;;;;;40.33;18.83;;;;;;;28.47;46.27;98620.97;4868612;29;20121;-63
2022/11/02 12:00:34;;;;;;;37.67;19.90;;;;;;;28.32;46.36;98622.38;4876731;29;20135;-63
2022/11/02 12:03:12;;;;;;;33.85;18.83;;;;;;;28.16;48.45;98621.31;4875723;29;20045;-62
2022/11/02 12:06:23;;;;;;;34.45;19.48;;;;;;;28.05;48.27;98620.88;4874796;29;20049;-62
2022/11/02 12:09:22;;;;;;;37.42;19.38;;;;;;;27.98;47.78;98620.63;4861583;29;20057;-62
2022/11/02 12:12:21;;;;;;;36.67;18.75;;;;;;;27.83;49.32;98619.19;4881598;29;20140;-65
2022/11/02 12:15:27;;;;;;;44.55;20.20;;;;;;;27.71;49.32;98615.16;4870727;29;20075;-63
2022/11/02 12:19:09;;;;;;;46.72;18.73;;;;;;;27.65;49.64;98627.53;4870715;29;20057;-62
2022/11/02 12:22:13;;;;;;;35.38;19.48;;;;;;;27.50;49.84;98628.88;4855530;29;20053;-63
2022/11/02 12:25:20;;;;;;;38.00;20.23;;;;;;;27.40;49.90;98620.94;4882996;29;20454;-62
2022/11/02 12:28:22;;;;;;;40.67;21.65;;;;;;;27.42;48.95;98621.44;4888925;29;20120;-64
2022/11/02 12:31:26;;;;;;;44.80;20.55;;;;;;;27.28;48.52;98624.34;4873735;29;20061;-64
2022/11/02 12:34:50;;;;;;;40.08;21.27;;;;;;;27.20;49.74;98630.66;4883869;29;20068;-62
2022/11/02 12:38:33;;;;;;;44.22;21.55;;;;;;;27.10;48.84;98626.31;4873171;29;20069;-61
2022/11/02 12:41:52;;;;;;;47.83;22.33;;;;;;;26.96;49.92;98628.41;4855393;29;20064;-61
2022/11/02 12:44:58;;;;;;;47.05;23.50;;;;;;;26.99;49.26;98632.47;4868494;29;20144;-60
2022/11/02 12:47:59;;;;;;;51.05;23.65;;;;;;;26.86;49.29;98623.25;4841086;29;20131;-60
2022/11/02 12:51:12;;;;;;;;;;;;;;;26.92;49.35;98624.69;4858582;29;20045;-61
2022/11/02 12:54:05;;;;;;;45.17;23.65;;;;;;;26.74;50.66;98627.44;4864223;29;19928;-62
2022/11/02 12:57:04;;;;;;;54.25;25.55;;;;;;;26.69;50.68;98637.81;4842487;29;20064;-60
2022/11/02 13:00:32;;;;;;;67.72;25.90;;;;;;;26.62;51.00;98632.78;4827105;29;20073;-61
2022/11/02 13:03:56;;;;;;;46.78;24.23;;;;;;;26.58;51.39;98637.31;4819460;29;20053;-63
2022/11/02 13:06:55;;;;;;;60.25;25.40;;;;;;;26.55;51.16;98641.47;4854735;29;20057;-61
2022/11/02 13:10:11;;;;;;;62.35;26.50;;;;;;;26.54;51.92;98633.53;4842027;29;20063;-63
2022/11/02 13:13:19;;;;;;;64.20;26.58;;;;;;;26.45;52.55;98641.81;4854930;29;20436;-62
2022/11/02 13:16:13;;;;;;;73.07;27.77;;;;;;;26.40;51.21;98638.38;4826080;29;20137;-60
2022/11/02 13:19:19;;;;;;;91.90;28.15;;;;;;;26.37;51.83;98640.66;4856232;29;20076;-64
2022/11/02 13:22:03;;;;;;;66.00;27.48;;;;;;;26.31;51.58;98649.38;4856871;29;20053;-62
2022/11/02 13:25:12;;;;;;;76.75;27.55;;;;;;;26.26;52.32;98646.78;4859508;29;20058;-60